BOE907 KPAE-KPAE
Flight info
| Callsign | BOE907 |
|---|---|
| Flight time | N/A |
| Altitude | 40000 |
| Route | ALPSE SINGG MLP EPH TUNNL DEVYN2 |
| Aircraft | B789/H-SDE1E2E3FGHIJ2J3J4J5M1RWXY/LB1D1 |
Departure
| Time | 2026-05-08 05:24 |
|---|---|
| Airport | Seattle Paine Field International Airport (KPAE) |
Arrival
| Time | N/A |
|---|---|
| Airport | Seattle Paine Field International Airport (KPAE) |
| Time | Latitude | Longitude | Altitude | Speed | Heading |
|---|---|---|---|---|---|
| 2026-05-08 05:15 | 47.91379 | -122.28161 | 588 ft | 0 kts | 270° |
| 2026-05-08 05:20 | 47.91379 | -122.28154 | 588 ft | 4 kts | 270° |
| 2026-05-08 05:20 | 47.91388 | -122.28075 | 586 ft | 9 kts | 234° |
| 2026-05-08 05:21 | 47.91406 | -122.28049 | 586 ft | 1 kts | 196° |
| 2026-05-08 05:21 | 47.91381 | -122.28048 | 585 ft | 10 kts | 181° |
| 2026-05-08 05:21 | 47.91289 | -122.28096 | 588 ft | 17 kts | 236° |
| 2026-05-08 05:21 | 47.91289 | -122.28236 | 592 ft | 18 kts | 274° |
| 2026-05-08 05:22 | 47.91320 | -122.28354 | 595 ft | 9 kts | 337° |
| 2026-05-08 05:22 | 47.91431 | -122.28351 | 590 ft | 25 kts | 2° |
| 2026-05-08 05:22 | 47.91661 | -122.28357 | 588 ft | 41 kts | 357° |
| 2026-05-08 05:22 | 47.91965 | -122.28391 | 590 ft | 35 kts | 355° |
| 2026-05-08 05:23 | 47.92127 | -122.28424 | 589 ft | 18 kts | 331° |
| 2026-05-08 05:23 | 47.92140 | -122.28575 | 590 ft | 15 kts | 224° |
| 2026-05-08 05:23 | 47.92014 | -122.28584 | 590 ft | 47 kts | 179° |
| 2026-05-08 05:23 | 47.91416 | -122.28570 | 596 ft | 123 kts | 179° |
| 2026-05-08 05:24 | 47.90353 | -122.28546 | 749 ft | 168 kts | 180° |
| 2026-05-08 05:24 | 47.89276 | -122.28592 | 1678 ft | 151 kts | 182° |
| 2026-05-08 05:24 | 47.88053 | -122.28673 | 1341 ft | 201 kts | 182° |
| 2026-05-08 05:24 | 47.86612 | -122.28767 | 850 ft | 216 kts | 181° |
| 2026-05-08 05:25 | 47.85026 | -122.28880 | 809 ft | 242 kts | 182° |
| 2026-05-08 05:25 | 47.83251 | -122.29005 | 1155 ft | 267 kts | 182° |
| 2026-05-08 05:25 | 47.81358 | -122.29141 | 1840 ft | 278 kts | 183° |
| 2026-05-08 05:25 | 47.79484 | -122.29950 | 2420 ft | 290 kts | 212° |
| 2026-05-08 05:26 | 47.78098 | -122.32170 | 3004 ft | 303 kts | 241° |
| 2026-05-08 05:26 | 47.77581 | -122.35217 | 3602 ft | 316 kts | 268° |
| 2026-05-08 05:26 | 47.78102 | -122.38461 | 4218 ft | 329 kts | 297° |
| 2026-05-08 05:26 | 47.79590 | -122.41061 | 4973 ft | 336 kts | 321° |
| 2026-05-08 05:27 | 47.81703 | -122.42574 | 5717 ft | 343 kts | 345° |
| 2026-05-08 05:27 | 47.84097 | -122.42739 | 6458 ft | 350 kts | 8° |
| 2026-05-08 05:27 | 47.86440 | -122.41717 | 7213 ft | 353 kts | 19° |
| 2026-05-08 05:27 | 47.88741 | -122.40420 | 7994 ft | 355 kts | 21° |
| 2026-05-08 05:28 | 47.90931 | -122.38703 | 8767 ft | 358 kts | 35° |
| 2026-05-08 05:28 | 47.92780 | -122.36224 | 9482 ft | 357 kts | 47° |
| 2026-05-08 05:28 | 47.94600 | -122.33685 | 9696 ft | 361 kts | 39° |
| 2026-05-08 05:28 | 47.96542 | -122.31267 | 9858 ft | 369 kts | 39° |
| 2026-05-08 05:29 | 47.98556 | -122.28792 | 10283 ft | 377 kts | 38° |
| 2026-05-08 05:29 | 48.00625 | -122.26441 | 11209 ft | 371 kts | 36° |
| 2026-05-08 05:29 | 48.02709 | -122.24175 | 12059 ft | 369 kts | 36° |
| 2026-05-08 05:29 | 48.04803 | -122.21933 | 12757 ft | 372 kts | 35° |
| 2026-05-08 05:30 | 48.06923 | -122.19679 | 13027 ft | 388 kts | 35° |
| 2026-05-08 05:30 | 48.09189 | -122.17274 | 13016 ft | 410 kts | 35° |
| 2026-05-08 05:30 | 48.11540 | -122.14679 | 13016 ft | 428 kts | 39° |
| 2026-05-08 05:30 | 48.13605 | -122.11420 | 13005 ft | 434 kts | 53° |
| 2026-05-08 05:31 | 48.15085 | -122.07499 | 12986 ft | 434 kts | 68° |
| 2026-05-08 05:31 | 48.15899 | -122.03158 | 12999 ft | 433 kts | 81° |
| 2026-05-08 05:31 | 48.16008 | -121.98661 | 12988 ft | 433 kts | 95° |
| 2026-05-08 05:31 | 48.15585 | -121.94206 | 13013 ft | 432 kts | 101° |
| 2026-05-08 05:32 | 48.14996 | -121.89789 | 13018 ft | 433 kts | 102° |
| 2026-05-08 05:32 | 48.14460 | -121.85372 | 13016 ft | 430 kts | 99° |
| 2026-05-08 05:32 | 48.14213 | -121.80903 | 13010 ft | 432 kts | 93° |
| 2026-05-08 05:32 | 48.14156 | -121.76405 | 13014 ft | 432 kts | 91° |
| 2026-05-08 05:33 | 48.14089 | -121.71912 | 13005 ft | 432 kts | 94° |
| 2026-05-08 05:33 | 48.13855 | -121.67515 | 12988 ft | 412 kts | 96° |
| 2026-05-08 05:33 | 48.13608 | -121.63366 | 12983 ft | 388 kts | 95° |
| 2026-05-08 05:33 | 48.13448 | -121.59498 | 12976 ft | 366 kts | 94° |
| 2026-05-08 05:34 | 48.13318 | -121.55801 | 12972 ft | 345 kts | 94° |
| 2026-05-08 05:34 | 48.13166 | -121.52315 | 12966 ft | 326 kts | 95° |
| 2026-05-08 05:34 | 48.13007 | -121.49014 | 12967 ft | 311 kts | 95° |
| 2026-05-08 05:34 | 48.12860 | -121.45824 | 12975 ft | 305 kts | 95° |
| 2026-05-08 05:35 | 48.12720 | -121.42649 | 12977 ft | 306 kts | 95° |
| 2026-05-08 05:35 | 48.12577 | -121.39457 | 12981 ft | 309 kts | 95° |
| 2026-05-08 05:35 | 48.12430 | -121.36239 | 12958 ft | 310 kts | 95° |
| 2026-05-08 05:35 | 48.12282 | -121.33029 | 12969 ft | 309 kts | 95° |
| 2026-05-08 05:36 | 48.12132 | -121.29818 | 12968 ft | 309 kts | 95° |
| 2026-05-08 05:36 | 48.11984 | -121.26602 | 12957 ft | 309 kts | 95° |
| 2026-05-08 05:36 | 48.11835 | -121.23402 | 12969 ft | 308 kts | 95° |
| 2026-05-08 05:36 | 48.11684 | -121.20195 | 12972 ft | 310 kts | 95° |
| 2026-05-08 05:37 | 48.11531 | -121.16974 | 12969 ft | 310 kts | 95° |
| 2026-05-08 05:37 | 48.11377 | -121.13757 | 12963 ft | 310 kts | 95° |
| 2026-05-08 05:37 | 48.11226 | -121.10546 | 12957 ft | 309 kts | 95° |
| 2026-05-08 05:37 | 48.11071 | -121.07351 | 12959 ft | 309 kts | 95° |
| 2026-05-08 05:38 | 48.10914 | -121.04135 | 12954 ft | 310 kts | 95° |
| 2026-05-08 05:38 | 48.10757 | -121.00920 | 12960 ft | 309 kts | 95° |
| 2026-05-08 05:38 | 48.10602 | -120.97711 | 12962 ft | 310 kts | 95° |
| 2026-05-08 05:38 | 48.10443 | -120.94497 | 12930 ft | 310 kts | 96° |
| 2026-05-08 05:39 | 48.10285 | -120.91327 | 12929 ft | 309 kts | 95° |
| 2026-05-08 05:39 | 48.10126 | -120.88118 | 12921 ft | 309 kts | 95° |
| 2026-05-08 05:39 | 48.09965 | -120.84912 | 12935 ft | 309 kts | 95° |
| 2026-05-08 05:39 | 48.09804 | -120.81704 | 12935 ft | 309 kts | 96° |
| 2026-05-08 05:40 | 48.09640 | -120.78493 | 12926 ft | 310 kts | 95° |
| 2026-05-08 05:40 | 48.09477 | -120.75284 | 12917 ft | 309 kts | 95° |
| 2026-05-08 05:40 | 48.09313 | -120.72082 | 12898 ft | 309 kts | 95° |
| 2026-05-08 05:40 | 48.09148 | -120.68871 | 12891 ft | 310 kts | 96° |
| 2026-05-08 05:41 | 48.08981 | -120.65656 | 12897 ft | 310 kts | 95° |
| 2026-05-08 05:41 | 48.08813 | -120.62444 | 12894 ft | 309 kts | 95° |
| 2026-05-08 05:41 | 48.08645 | -120.59237 | 12893 ft | 309 kts | 96° |
| 2026-05-08 05:41 | 48.08476 | -120.56031 | 12894 ft | 309 kts | 96° |
| 2026-05-08 05:42 | 48.08307 | -120.52825 | 12894 ft | 309 kts | 95° |
| 2026-05-08 05:42 | 48.08136 | -120.49621 | 12849 ft | 309 kts | 95° |
| 2026-05-08 05:42 | 48.07964 | -120.46410 | 12849 ft | 310 kts | 95° |
| 2026-05-08 05:42 | 48.07793 | -120.43228 | 12852 ft | 312 kts | 96° |
| 2026-05-08 05:43 | 48.07619 | -120.40005 | 12851 ft | 310 kts | 95° |
| 2026-05-08 05:43 | 48.07445 | -120.36795 | 12849 ft | 309 kts | 96° |
| 2026-05-08 05:43 | 48.07270 | -120.33592 | 12853 ft | 310 kts | 96° |
| 2026-05-08 05:43 | 48.07093 | -120.30373 | 12828 ft | 310 kts | 95° |
| 2026-05-08 05:44 | 48.06915 | -120.27163 | 12830 ft | 309 kts | 95° |
| 2026-05-08 05:44 | 48.06739 | -120.23966 | 12818 ft | 309 kts | 95° |
| 2026-05-08 05:44 | 48.06560 | -120.20763 | 12820 ft | 309 kts | 96° |
| 2026-05-08 05:44 | 48.06380 | -120.17556 | 12820 ft | 310 kts | 95° |
| 2026-05-08 05:45 | 48.06199 | -120.14350 | 12825 ft | 309 kts | 96° |
| 2026-05-08 05:45 | 48.06019 | -120.11149 | 12819 ft | 309 kts | 96° |
| 2026-05-08 05:45 | 48.05839 | -120.07983 | 12810 ft | 309 kts | 96° |
| 2026-05-08 05:45 | 48.05655 | -120.04779 | 12815 ft | 310 kts | 95° |
| 2026-05-08 05:46 | 48.05470 | -120.01569 | 12815 ft | 309 kts | 95° |
| 2026-05-08 05:46 | 48.05287 | -119.98373 | 12810 ft | 309 kts | 96° |
| 2026-05-08 05:46 | 48.05101 | -119.95174 | 12802 ft | 309 kts | 96° |
| 2026-05-08 05:46 | 48.04914 | -119.91974 | 12804 ft | 309 kts | 96° |
| 2026-05-08 05:47 | 48.04726 | -119.88774 | 12803 ft | 309 kts | 95° |
| 2026-05-08 05:47 | 48.04539 | -119.85571 | 12802 ft | 309 kts | 96° |
| 2026-05-08 05:47 | 48.04350 | -119.82373 | 12803 ft | 309 kts | 96° |
| 2026-05-08 05:47 | 48.04158 | -119.79166 | 12803 ft | 310 kts | 96° |
| 2026-05-08 05:48 | 48.03966 | -119.75947 | 12808 ft | 313 kts | 96° |
| 2026-05-08 05:48 | 48.03773 | -119.72710 | 12811 ft | 313 kts | 96° |
| 2026-05-08 05:48 | 48.03580 | -119.69516 | 12811 ft | 313 kts | 96° |
| 2026-05-08 05:48 | 48.03383 | -119.66274 | 12827 ft | 314 kts | 96° |
| 2026-05-08 05:49 | 48.03186 | -119.63036 | 12823 ft | 312 kts | 96° |
| 2026-05-08 05:49 | 48.02990 | -119.59812 | 12821 ft | 312 kts | 96° |
| 2026-05-08 05:49 | 48.02791 | -119.56577 | 12820 ft | 312 kts | 96° |
| 2026-05-08 05:49 | 48.02590 | -119.53334 | 12823 ft | 313 kts | 96° |
| 2026-05-08 05:50 | 48.02390 | -119.50098 | 12821 ft | 312 kts | 96° |
| 2026-05-08 05:50 | 48.02190 | -119.46873 | 12830 ft | 311 kts | 96° |
| 2026-05-08 05:50 | 48.01988 | -119.43648 | 12826 ft | 313 kts | 96° |
| 2026-05-08 05:50 | 48.01784 | -119.40408 | 12830 ft | 313 kts | 96° |
| 2026-05-08 05:51 | 48.01576 | -119.37127 | 12850 ft | 327 kts | 96° |
| 2026-05-08 05:51 | 48.01353 | -119.33616 | 12854 ft | 352 kts | 96° |
| 2026-05-08 05:51 | 48.01113 | -119.29844 | 12862 ft | 377 kts | 96° |
| 2026-05-08 05:51 | 48.00856 | -119.25833 | 12870 ft | 399 kts | 96° |
| 2026-05-08 05:52 | 48.00583 | -119.21596 | 12870 ft | 420 kts | 96° |
| 2026-05-08 05:52 | 48.00296 | -119.17156 | 12865 ft | 438 kts | 96° |
| 2026-05-08 05:52 | 47.99973 | -119.12614 | 12854 ft | 439 kts | 98° |
| 2026-05-08 05:52 | 47.99133 | -119.08238 | 12838 ft | 440 kts | 113° |
| 2026-05-08 05:53 | 47.97652 | -119.04308 | 12831 ft | 433 kts | 126° |
| 2026-05-08 05:53 | 47.95603 | -119.01013 | 12836 ft | 434 kts | 140° |
| 2026-05-08 05:53 | 47.93106 | -118.98530 | 12828 ft | 432 kts | 153° |
| 2026-05-08 05:53 | 47.90295 | -118.96994 | 12826 ft | 430 kts | 167° |
| 2026-05-08 05:54 | 47.87335 | -118.96493 | 12829 ft | 429 kts | 181° |
| 2026-05-08 05:54 | 47.84388 | -118.97049 | 12842 ft | 427 kts | 194° |
| 2026-05-08 05:54 | 47.81621 | -118.98629 | 12847 ft | 427 kts | 208° |
| 2026-05-08 05:54 | 47.79185 | -119.01018 | 12849 ft | 425 kts | 218° |
| 2026-05-08 05:55 | 47.76871 | -119.03771 | 12847 ft | 427 kts | 219° |
| 2026-05-08 05:55 | 47.74552 | -119.06527 | 12858 ft | 427 kts | 218° |
| 2026-05-08 05:55 | 47.72090 | -119.09003 | 12851 ft | 428 kts | 212° |
| 2026-05-08 05:55 | 47.69536 | -119.11292 | 12861 ft | 427 kts | 211° |
| 2026-05-08 05:56 | 47.67033 | -119.13673 | 12856 ft | 427 kts | 214° |
| 2026-05-08 05:56 | 47.64591 | -119.16190 | 12860 ft | 427 kts | 215° |
| 2026-05-08 05:56 | 47.62136 | -119.18668 | 12857 ft | 427 kts | 214° |
| 2026-05-08 05:56 | 47.59641 | -119.21070 | 12856 ft | 427 kts | 213° |
| 2026-05-08 05:57 | 47.57151 | -119.23472 | 12857 ft | 428 kts | 214° |
| 2026-05-08 05:57 | 47.54676 | -119.25917 | 12860 ft | 427 kts | 214° |
| 2026-05-08 05:57 | 47.52210 | -119.28354 | 12861 ft | 426 kts | 214° |
| 2026-05-08 05:57 | 47.50571 | -119.29956 | 12862 ft | 426 kts | 213° |
| 2026-05-08 05:58 | 47.47270 | -119.33164 | 13254 ft | 419 kts | 214° |
| 2026-05-08 05:58 | 47.44962 | -119.35801 | 13761 ft | 423 kts | 224° |
| 2026-05-08 05:58 | 47.43093 | -119.39225 | 13905 ft | 433 kts | 237° |
| 2026-05-08 05:58 | 47.41763 | -119.43205 | 13709 ft | 432 kts | 249° |
| 2026-05-08 05:59 | 47.41052 | -119.47496 | 13213 ft | 431 kts | 262° |
| 2026-05-08 05:59 | 47.41018 | -119.51890 | 12647 ft | 426 kts | 275° |
| 2026-05-08 05:59 | 47.41678 | -119.56133 | 12102 ft | 424 kts | 289° |
| 2026-05-08 05:59 | 47.42994 | -119.60016 | 11572 ft | 423 kts | 301° |
| 2026-05-08 06:00 | 47.44684 | -119.63560 | 11089 ft | 421 kts | 306° |
| 2026-05-08 06:00 | 47.46447 | -119.67007 | 10608 ft | 420 kts | 306° |
| 2026-05-08 06:00 | 47.48086 | -119.70485 | 10138 ft | 417 kts | 302° |
| 2026-05-08 06:00 | 47.49467 | -119.74254 | 9641 ft | 415 kts | 296° |
| 2026-05-08 06:01 | 47.50688 | -119.78104 | 9121 ft | 411 kts | 294° |
| 2026-05-08 06:01 | 47.51911 | -119.81909 | 8609 ft | 408 kts | 296° |
| 2026-05-08 06:01 | 47.53277 | -119.85591 | 8112 ft | 414 kts | 299° |
| 2026-05-08 06:01 | 47.54710 | -119.89397 | 7639 ft | 427 kts | 297° |
| 2026-05-08 06:02 | 47.56081 | -119.93287 | 7166 ft | 426 kts | 296° |
| 2026-05-08 06:02 | 47.57425 | -119.97196 | 6693 ft | 426 kts | 296° |
| 2026-05-08 06:02 | 47.58792 | -120.01072 | 6251 ft | 423 kts | 297° |
| 2026-05-08 06:02 | 47.60174 | -120.04892 | 5756 ft | 417 kts | 296° |
| 2026-05-08 06:03 | 47.61515 | -120.08678 | 5258 ft | 413 kts | 296° |
| 2026-05-08 06:03 | 47.62831 | -120.12427 | 4779 ft | 408 kts | 297° |
| 2026-05-08 06:03 | 47.64139 | -120.16155 | 4283 ft | 406 kts | 297° |
| 2026-05-08 06:03 | 47.65439 | -120.19832 | 3801 ft | 399 kts | 297° |
| 2026-05-08 06:04 | 47.66709 | -120.23445 | 3768 ft | 392 kts | 297° |
| 2026-05-08 06:04 | 47.67987 | -120.27087 | 3855 ft | 400 kts | 297° |
| 2026-05-08 06:04 | 47.69265 | -120.30730 | 3866 ft | 399 kts | 297° |
| 2026-05-08 06:04 | 47.70532 | -120.34370 | 3849 ft | 394 kts | 297° |
| 2026-05-08 06:05 | 47.71819 | -120.38046 | 3912 ft | 404 kts | 297° |
| 2026-05-08 06:05 | 47.73102 | -120.41701 | 4221 ft | 397 kts | 296° |
| 2026-05-08 06:05 | 47.73937 | -120.44136 | 4445 ft | 403 kts | 297° |
| 2026-05-08 06:05 | 47.75234 | -120.47818 | 4761 ft | 401 kts | 297° |
| 2026-05-08 06:06 | 47.76514 | -120.51510 | 5092 ft | 404 kts | 296° |
| 2026-05-08 06:06 | 47.76837 | -120.52234 | 5455 ft | 243 kts | 304° |
| 2026-05-08 06:06 | 47.77693 | -120.54025 | 5539 ft | 198 kts | 298° |